Terminal Aerodrome Forecast
Issued by NWS Missoula, MT

Home | Current Version | Previous Version | Text Only | Print | Product List | Glossary On
Versions: 1 2 3 4 5 6 7 8 9 10 11 12 13
000
FTUS45 KMSO 311700
TAFMSO
TAF
KMSO 311725Z 3118/0118 14004KT P6SM SCT080
     FM312000 33007KT P6SM SCT090 BKN150
     FM010300 VRB03KT P6SM SCT120=

USA.gov is the U.S. government's official web portal to all federal, state and local government web resources and services.